Time;durP1;ratioP1;P1;durP2;ratioP2;P2;SDS_P1;SDS_P2;PMS_P1;PMS_P2;Temp;Humidity;BMP_temperature;BMP_pressure;BME280_temperature;BME280_humidity;BME280_pressure;Samples;Min_cycle;Max_cycle;Signal;HPM_P1;HPM_P2
2021/04/10 00:01:34;;;;;;;15.18;9.18;;;9.30;99.90;;;;;;4974134;28;20270;-78
2021/04/10 00:04:01;;;;;;;11.15;9.00;;;9.30;99.90;;;;;;4974617;28;20637;-78
2021/04/10 00:06:28;;;;;;;9.80;8.90;;;9.30;99.90;;;;;;4973688;28;20230;-78
2021/04/10 00:08:54;;;;;;;10.60;8.80;;;9.20;99.90;;;;;;4968764;28;20570;-78
2021/04/10 00:11:21;;;;;;;15.02;10.82;;;9.20;99.90;;;;;;4955160;28;20306;-78
2021/04/10 00:13:47;;;;;;;11.20;10.10;;;9.10;99.90;;;;;;4962896;28;20289;-78
2021/04/10 00:16:14;;;;;;;11.40;10.32;;;9.10;99.90;;;;;;4966118;28;20222;-78
2021/04/10 00:18:40;;;;;;;13.05;11.65;;;9.20;99.90;;;;;;4974002;28;20698;-78
2021/04/10 00:21:07;;;;;;;14.95;11.20;;;9.20;99.90;;;;;;4974188;28;20227;-78
2021/04/10 00:23:33;;;;;;;14.90;13.45;;;9.30;99.90;;;;;;4972157;28;20247;-78
2021/04/10 00:26:00;;;;;;;15.27;12.30;;;9.30;99.90;;;;;;4958634;28;20561;-78
2021/04/10 00:28:27;;;;;;;13.40;12.02;;;9.40;99.90;;;;;;4972835;28;20207;-78
2021/04/10 00:31:06;;;;;;;14.63;11.23;;;9.40;99.90;;;;;;4976564;28;20230;-78
2021/04/10 00:33:37;;;;;;;15.93;11.95;;;9.30;99.90;;;;;;4969992;28;20711;-78
2021/04/10 00:36:04;;;;;;;14.38;12.32;;;9.30;99.90;;;;;;4977293;28;20250;-78
2021/04/10 00:38:32;;;;;;;18.45;13.57;;;9.20;99.90;;;;;;4972885;28;20234;-78
2021/04/10 00:40:59;;;;;;;17.08;13.18;;;9.20;99.90;;;;;;4956217;28;20207;-77
2021/04/10 00:43:26;;;;;;;15.48;12.40;;;9.20;99.90;;;;;;4973773;28;20207;-77
2021/04/10 00:45:53;;;;;;;17.10;14.32;;;9.10;99.90;;;;;;4972696;28;20250;-77
2021/04/10 00:48:20;;;;;;;15.00;13.50;;;9.10;99.90;;;;;;4973544;28;20682;-77
2021/04/10 00:50:47;;;;;;;15.40;13.63;;;9.00;99.90;;;;;;4973416;28;20682;-77
2021/04/10 00:53:20;;;;;;;15.70;14.02;;;9.10;99.90;;;;;;4964980;28;20603;-77
2021/04/10 00:55:47;;;;;;;15.63;13.80;;;9.10;99.90;;;;;;4967066;28;20242;-77
2021/04/10 00:58:15;;;;;;;15.48;13.88;;;9.10;99.90;;;;;;4973701;28;20286;-77
2021/04/10 01:00:42;;;;;;;17.83;14.93;;;9.10;99.90;;;;;;4951788;28;20227;-77
2021/04/10 01:03:09;;;;;;;18.38;13.80;;;9.10;99.90;;;;;;4970835;28;20214;-77
2021/04/10 01:05:36;;;;;;;18.35;13.63;;;9.20;99.90;;;;;;4955224;28;20242;-77
2021/04/10 01:08:04;;;;;;;17.08;12.75;;;9.10;99.90;;;;;;4973314;28;20302;-77
2021/04/10 01:10:32;;;;;;;15.52;13.95;;;9.20;99.90;;;;;;4971340;28;20720;-77
2021/04/10 01:13:20;;;;;;;13.82;11.30;;;9.10;99.90;;;;;;4973336;28;20207;-77
2021/04/10 01:16:11;;;;;;;12.52;11.20;;;9.10;99.90;;;;;;4954468;28;20761;-77
2021/04/10 01:18:58;;;;;;;13.02;10.35;;;9.10;99.90;;;;;;4962016;28;20617;-77
2021/04/10 01:21:38;;;;;;;17.70;12.45;;;9.00;99.90;;;;;;4955309;28;20318;-77
2021/04/10 01:24:05;;;;;;;13.98;12.57;;;8.90;99.90;;;;;;4961304;28;20215;-77
2021/04/10 01:27:06;;;;;;;15.27;12.10;;;8.80;99.90;;;;;;4971483;28;20585;-77
2021/04/10 01:29:41;;;;;;;13.93;12.63;;;8.80;99.90;;;;;;4937065;28;20223;-77
2021/04/10 01:32:11;;;;;;;14.93;12.70;;;8.80;99.90;;;;;;4970200;28;20179;-77
2021/04/10 01:34:45;;;;;;;13.07;11.70;;;8.80;99.90;;;;;;4954007;28;20709;-77
2021/04/10 01:37:27;;;;;;;14.05;11.15;;;8.80;99.90;;;;;;4972740;28;20303;-77
2021/04/10 01:40:00;;;;;;;12.50;11.30;;;8.70;99.90;;;;;;4954777;28;20238;-78
2021/04/10 01:42:29;;;;;;;13.40;11.02;;;8.70;99.90;;;;;;4955558;28;20191;-76
2021/04/10 01:44:59;;;;;;;12.65;11.45;;;8.70;99.90;;;;;;4952644;28;20314;-77
2021/04/10 01:47:28;;;;;;;12.57;11.10;;;8.70;99.90;;;;;;4962462;28;20211;-77
2021/04/10 01:49:57;;;;;;;11.88;10.68;;;8.60;99.90;;;;;;4954734;28;20238;-77
2021/04/10 01:52:27;;;;;;;14.55;11.95;;;8.50;99.90;;;;;;4970950;28;20210;-77
2021/04/10 01:54:53;;;;;;;14.15;11.23;;;8.50;99.90;;;;;;4954949;28;20226;-77
2021/04/10 01:57:21;;;;;;;13.05;11.57;;;8.60;99.90;;;;;;4955112;28;20191;-77
2021/04/10 01:59:58;;;;;;;14.73;12.57;;;8.50;99.90;;;;;;4964458;28;20262;-77
2021/04/10 02:02:41;;;;;;;12.63;11.30;;;8.50;99.90;;;;;;4972380;28;20192;-77
2021/04/10 02:05:14;;;;;;;18.30;12.20;;;8.40;99.90;;;;;;4954162;28;20571;-77
2021/04/10 02:07:47;;;;;;;13.73;12.32;;;8.40;99.90;;;;;;4972319;28;20206;-77
2021/04/10 02:10:29;;;;;;;15.30;10.75;;;8.50;99.90;;;;;;5129164;27;20570;-77
2021/04/10 02:13:04;;;;;;;13.52;11.13;;;8.50;99.90;;;;;;5100185;28;20541;-77
2021/04/10 02:15:42;;;;;;;12.38;11.18;;;8.50;99.90;;;;;;5098596;27;20221;-77
2021/04/10 02:18:11;;;;;;;12.57;11.38;;;8.40;99.90;;;;;;5100830;28;20237;-77
2021/04/10 02:20:38;;;;;;;12.63;11.10;;;8.40;99.90;;;;;;5100334;27;20230;-77
2021/04/10 02:23:04;;;;;;;14.43;13.05;;;8.40;99.90;;;;;;5107880;28;20186;-77
2021/04/10 02:25:37;;;;;;;13.10;11.75;;;8.30;99.90;;;;;;5100152;27;20222;-78
2021/04/10 02:28:08;;;;;;;13.20;11.88;;;8.30;99.90;;;;;;5107376;28;20190;-77
2021/04/10 02:30:34;;;;;;;12.77;11.57;;;8.30;99.90;;;;;;5107237;27;20226;-77
2021/04/10 02:33:13;;;;;;;14.07;12.15;;;8.20;99.90;;;;;;5087631;28;20175;-77
2021/04/10 02:35:51;;;;;;;15.07;13.45;;;8.20;99.90;;;;;;5100423;27;20228;-77
2021/04/10 02:38:21;;;;;;;14.60;13.13;;;8.20;99.90;;;;;;5099066;28;20201;-77
2021/04/10 02:40:57;;;;;;;13.38;12.05;;;8.20;99.90;;;;;;5099749;27;20758;-77
2021/04/10 02:43:29;;;;;;;12.60;11.30;;;8.10;99.90;;;;;;5087161;28;20187;-77
2021/04/10 02:46:01;;;;;;;12.60;11.32;;;8.10;99.90;;;;;;5082692;27;20223;-77
2021/04/10 02:48:55;;;;;;;12.63;11.10;;;8.10;99.90;;;;;;5077468;28;20204;-77
2021/04/10 02:51:29;;;;;;;11.80;10.70;;;8.10;99.90;;;;;;5083894;28;20767;-77
2021/04/10 02:53:56;;;;;;;11.75;10.65;;;8.10;99.90;;;;;;5073735;28;20204;-77
2021/04/10 02:56:27;;;;;;;17.60;12.85;;;8.10;99.90;;;;;;5085358;27;20219;-77
2021/04/10 02:58:54;;;;;;;14.75;12.50;;;8.10;99.90;;;;;;5072677;28;20246;-77
2021/04/10 03:01:22;;;;;;;15.32;13.82;;;8.10;99.90;;;;;;5082239;28;20598;-77
2021/04/10 03:03:51;;;;;;;13.80;12.50;;;8.10;99.90;;;;;;5077170;28;20606;-77
2021/04/10 03:06:18;;;;;;;15.27;13.80;;;8.10;99.90;;;;;;5075862;28;20576;-77
2021/04/10 03:08:47;;;;;;;14.10;12.70;;;8.20;99.90;;;;;;5074343;28;20227;-77
2021/04/10 03:11:16;;;;;;;14.73;13.32;;;8.10;99.90;;;;;;5083407;28;20531;-77
2021/04/10 03:13:43;;;;;;;14.93;13.43;;;8.10;99.90;;;;;;5084633;28;20186;-77
2021/04/10 03:16:18;;;;;;;14.65;13.05;;;8.00;99.90;;;;;;5075263;28;20745;-77
2021/04/10 03:18:49;;;;;;;16.88;15.18;;;8.00;99.90;;;;;;5079476;28;20534;-77
2021/04/10 03:21:18;;;;;;;16.88;15.20;;;8.00;99.90;;;;;;5073679;28;20235;-77
2021/04/10 03:23:54;;;;;;;17.90;16.00;;;7.90;99.90;;;;;;5059274;28;20737;-77
2021/04/10 03:26:23;;;;;;;15.60;14.13;;;7.90;99.90;;;;;;5061051;28;20318;-77
2021/04/10 03:28:54;;;;;;;16.02;13.82;;;7.90;99.90;;;;;;5058958;28;20296;-77
2021/04/10 03:31:21;;;;;;;14.98;13.40;;;8.00;99.90;;;;;;5054714;28;20282;-77
2021/04/10 03:33:48;;;;;;;14.65;13.15;;;7.90;99.90;;;;;;5066466;28;20186;-77
2021/04/10 03:36:15;;;;;;;14.77;13.40;;;7.90;99.90;;;;;;5070551;28;20216;-77
2021/04/10 03:38:42;;;;;;;17.13;15.32;;;7.80;99.90;;;;;;5056194;28;20191;-77
2021/04/10 03:41:11;;;;;;;15.00;13.50;;;7.80;99.90;;;;;;5068565;28;20721;-77
2021/04/10 03:43:38;;;;;;;14.25;12.75;;;7.90;99.90;;;;;;5067662;28;20192;-77
2021/04/10 03:46:04;;;;;;;14.25;12.85;;;7.80;99.90;;;;;;5053135;28;20236;-77
2021/04/10 03:48:32;;;;;;;14.05;12.75;;;7.70;99.90;;;;;;5060323;28;20212;-77
2021/04/10 03:51:05;;;;;;;16.55;13.93;;;7.60;99.90;;;;;;5060789;28;20211;-77
2021/04/10 03:53:41;;;;;;;32.17;16.80;;;7.60;99.90;;;;;;5065986;28;20192;-77
2021/04/10 03:56:11;;;;;;;15.30;13.80;;;7.60;99.90;;;;;;5067671;28;20227;-77
2021/04/10 03:58:38;;;;;;;13.98;12.50;;;7.60;99.90;;;;;;5061177;28;20590;-77
2021/04/10 04:01:07;;;;;;;15.50;13.90;;;7.50;99.90;;;;;;5067289;28;20219;-77
2021/04/10 04:03:36;;;;;;;15.50;14.05;;;7.50;99.90;;;;;;5069581;28;20201;-77
2021/04/10 04:06:03;;;;;;;17.67;15.57;;;7.40;99.90;;;;;;5052600;28;20220;-77
2021/04/10 04:08:29;;;;;;;16.10;14.40;;;7.40;99.90;;;;;;5064032;28;20261;-77
2021/04/10 04:10:56;;;;;;;16.70;14.68;;;7.40;99.90;;;;;;5063530;28;20295;-77
2021/04/10 04:13:22;;;;;;;17.40;15.70;;;7.40;99.90;;;;;;5053537;28;20232;-77
2021/04/10 04:15:49;;;;;;;14.40;13.00;;;7.40;99.90;;;;;;5066158;28;20280;-77
2021/04/10 04:18:15;;;;;;;13.30;12.00;;;7.40;99.90;;;;;;5056400;28;20204;-77
2021/04/10 04:20:42;;;;;;;15.13;13.48;;;7.40;99.90;;;;;;5052482;28;20267;-77
2021/04/10 04:23:08;;;;;;;15.40;13.40;;;7.30;99.90;;;;;;5069191;28;20612;-77
2021/04/10 04:25:34;;;;;;;12.30;11.10;;;7.20;99.90;;;;;;5070526;28;20640;-77
2021/04/10 04:28:01;;;;;;;13.85;12.43;;;7.20;99.90;;;;;;5072760;28;20210;-77
2021/04/10 04:30:28;;;;;;;13.02;11.85;;;7.20;99.90;;;;;;5069105;28;20223;-77
2021/04/10 04:32:54;;;;;;;14.45;13.05;;;7.20;99.90;;;;;;5058659;28;20200;-77
2021/04/10 04:35:21;;;;;;;14.15;12.68;;;7.20;99.90;;;;;;5071728;28;20713;-77
2021/04/10 04:37:47;;;;;;;13.93;12.55;;;7.20;99.90;;;;;;5062492;28;20295;-77
2021/04/10 04:40:14;;;;;;;13.32;12.00;;;7.20;99.90;;;;;;5059791;28;20246;-77
2021/04/10 04:42:41;;;;;;;13.27;12.02;;;7.20;99.90;;;;;;5064713;28;20219;-77
2021/04/10 04:45:08;;;;;;;13.23;11.93;;;7.20;99.90;;;;;;5055691;28;20629;-77
2021/04/10 04:47:34;;;;;;;13.00;11.77;;;7.20;99.90;;;;;;5055741;28;20216;-77
2021/04/10 04:50:01;;;;;;;13.90;12.50;;;7.20;99.90;;;;;;5070181;28;20269;-77
2021/04/10 04:52:29;;;;;;;13.27;11.98;;;7.20;99.90;;;;;;5061337;28;20708;-77
2021/04/10 04:54:56;;;;;;;14.15;12.75;;;7.20;99.90;;;;;;5051941;28;20233;-76
2021/04/10 04:57:22;;;;;;;14.13;11.98;;;7.30;99.90;;;;;;5068232;28;20207;-77
2021/04/10 04:59:49;;;;;;;14.50;13.13;;;7.30;99.90;;;;;;5056303;28;20685;-77
2021/04/10 05:02:16;;;;;;;20.23;15.93;;;7.20;99.90;;;;;;5070603;28;20707;-77
2021/04/10 05:04:42;;;;;;;15.27;13.68;;;7.30;99.90;;;;;;5058663;28;20204;-77
2021/04/10 05:07:08;;;;;;;14.98;13.48;;;7.30;99.90;;;;;;5052148;28;20265;-77
2021/04/10 05:09:35;;;;;;;13.63;12.23;;;7.30;99.90;;;;;;5051658;28;20609;-77
2021/04/10 05:12:02;;;;;;;14.45;12.93;;;7.30;99.90;;;;;;5062247;28;20181;-77
2021/04/10 05:14:29;;;;;;;13.35;12.05;;;7.30;99.90;;;;;;5058920;28;20466;-77
2021/04/10 05:16:55;;;;;;;13.25;12.05;;;7.30;99.90;;;;;;5052503;28;20220;-77
2021/04/10 05:19:22;;;;;;;14.20;12.73;;;7.20;99.90;;;;;;5071532;28;20243;-77
2021/04/10 05:21:48;;;;;;;13.38;11.98;;;7.30;99.90;;;;;;5060540;28;20215;-77
2021/04/10 05:24:14;;;;;;;14.98;13.38;;;7.30;99.90;;;;;;5062636;28;20235;-77
2021/04/10 05:26:41;;;;;;;16.58;12.98;;;7.30;99.90;;;;;;5049815;28;20684;-77
2021/04/10 05:29:07;;;;;;;15.52;13.88;;;7.30;99.90;;;;;;5067256;28;20261;-77
2021/04/10 05:31:34;;;;;;;13.30;11.90;;;7.20;99.90;;;;;;5061733;28;20577;-77
2021/04/10 05:34:02;;;;;;;12.90;11.60;;;7.20;99.90;;;;;;5067770;28;20200;-77
2021/04/10 05:36:29;;;;;;;15.68;12.65;;;7.20;99.90;;;;;;5050775;28;20701;-77
2021/04/10 05:38:56;;;;;;;13.02;11.73;;;7.20;99.90;;;;;;5066682;28;20246;-77
2021/04/10 05:41:22;;;;;;;14.13;12.05;;;7.20;99.90;;;;;;5068984;28;20231;-77
2021/04/10 05:43:48;;;;;;;13.60;12.30;;;7.20;99.90;;;;;;5051976;28;20238;-77
2021/04/10 05:46:15;;;;;;;11.00;10.05;;;7.30;99.90;;;;;;5067496;28;20219;-77
2021/04/10 05:48:41;;;;;;;12.30;11.25;;;7.30;99.90;;;;;;5071388;28;20565;-77
2021/04/10 05:51:08;;;;;;;11.15;10.15;;;7.40;99.90;;;;;;5054179;28;20216;-77
2021/04/10 05:53:34;;;;;;;11.07;9.95;;;7.40;99.90;;;;;;5069213;28;20245;-77
2021/04/10 05:56:01;;;;;;;12.90;11.60;;;7.50;99.90;;;;;;5069867;28;20307;-77
2021/04/10 05:58:27;;;;;;;11.55;10.13;;;7.50;99.90;;;;;;5059403;28;20303;-77
2021/04/10 06:00:54;;;;;;;12.32;11.13;;;7.50;99.90;;;;;;5064898;28;20211;-77
2021/04/10 06:03:20;;;;;;;10.63;9.63;;;7.50;99.90;;;;;;5070602;28;20258;-77
2021/04/10 06:05:47;;;;;;;11.43;10.20;;;7.50;99.90;;;;;;5066722;28;20322;-77
2021/04/10 06:08:14;;;;;;;13.15;11.75;;;7.50;99.90;;;;;;5056007;28;20232;-77
2021/04/10 06:10:40;;;;;;;12.15;10.95;;;7.60;99.90;;;;;;5056938;28;20524;-77
2021/04/10 06:13:10;;;;;;;12.93;11.73;;;7.60;99.90;;;;;;5050162;28;20222;-77
2021/04/10 06:15:36;;;;;;;12.40;11.10;;;7.70;99.90;;;;;;5067339;28;20243;-76
2021/04/10 06:18:04;;;;;;;12.80;11.65;;;7.70;99.90;;;;;;5071188;28;20299;-77
2021/04/10 06:20:36;;;;;;;13.98;10.75;;;7.80;99.90;;;;;;5050569;28;20712;-77
2021/04/10 06:23:03;;;;;;;13.35;11.43;;;7.80;99.90;;;;;;5056111;28;20265;-77
2021/04/10 06:25:30;;;;;;;12.30;10.85;;;7.90;99.90;;;;;;5066789;28;20215;-77
2021/04/10 06:27:59;;;;;;;10.93;9.82;;;7.90;99.90;;;;;;5057966;28;20785;-77
2021/04/10 06:30:29;;;;;;;13.40;12.10;;;8.00;99.90;;;;;;5056893;28;20220;-77
2021/04/10 06:32:55;;;;;;;12.70;11.23;;;8.10;99.90;;;;;;5063909;28;20267;-77
2021/04/10 06:35:22;;;;;;;11.70;10.50;;;8.10;99.90;;;;;;5060750;28;20648;-77
2021/04/10 06:37:49;;;;;;;13.88;12.57;;;8.20;99.90;;;;;;5058192;28;20185;-77
2021/04/10 06:40:16;;;;;;;12.55;11.32;;;8.30;99.90;;;;;;5058972;28;20981;-77
2021/04/10 06:42:44;;;;;;;12.38;11.07;;;8.40;99.90;;;;;;5057797;28;20188;-77
2021/04/10 06:45:11;;;;;;;12.23;9.88;;;8.40;99.90;;;;;;5063918;28;20227;-77
2021/04/10 06:47:39;;;;;;;11.75;10.35;;;8.60;99.90;;;;;;5058549;28;20662;-77
2021/04/10 06:50:09;;;;;;;12.15;10.45;;;8.60;99.90;;;;;;5055848;28;20630;-77
2021/04/10 06:52:38;;;;;;;11.15;10.05;;;8.70;99.90;;;;;;5065605;28;20253;-77
2021/04/10 06:55:13;;;;;;;11.35;10.10;;;8.80;99.90;;;;;;5064452;28;20677;-77
2021/04/10 06:58:04;;;;;;;10.45;9.45;;;8.80;99.90;;;;;;5057141;28;20714;-77
2021/04/10 07:00:32;;;;;;;13.73;10.88;;;8.90;99.90;;;;;;5060803;28;20224;-77
2021/04/10 07:03:01;;;;;;;13.82;9.60;;;9.00;99.90;;;;;;5064613;28;20534;-76
2021/04/10 07:05:29;;;;;;;10.45;9.45;;;8.90;99.90;;;;;;5064063;28;20235;-77
2021/04/10 07:07:56;;;;;;;9.25;8.30;;;9.00;99.90;;;;;;5058571;28;20187;-77
2021/04/10 07:10:23;;;;;;;10.90;9.95;;;9.10;99.90;;;;;;5064954;28;20250;-77
2021/04/10 07:12:50;;;;;;;14.15;9.40;;;9.10;99.90;;;;;;5060548;28;20680;-76
2021/04/10 07:15:18;;;;;;;14.75;9.57;;;9.10;99.90;;;;;;5065227;28;20213;-77
2021/04/10 07:18:05;;;;;;;11.00;9.77;;;9.10;99.90;;;;;;5069298;28;20237;-77
2021/04/10 07:20:36;;;;;;;9.80;8.35;;;9.20;99.90;;;;;;5063549;28;20276;-77
2021/04/10 07:23:14;;;;;;;9.73;8.40;;;9.20;99.90;;;;;;5066186;28;20195;-77
2021/04/10 07:25:43;;;;;;;9.50;8.13;;;9.20;99.90;;;;;;5068648;28;20216;-77
2021/04/10 07:28:30;;;;;;;8.05;7.15;;;9.30;99.90;;;;;;5037166;28;20185;-77
2021/04/10 07:31:03;;;;;;;9.07;8.13;;;9.50;99.90;;;;;;5064048;28;20216;-77
2021/04/10 07:33:32;;;;;;;7.70;7.00;;;9.60;99.90;;;;;;5058903;28;20542;-77
2021/04/10 07:36:01;;;;;;;8.65;7.55;;;9.70;99.90;;;;;;5066768;28;20726;-77
2021/04/10 07:38:36;;;;;;;9.25;8.25;;;9.70;99.90;;;;;;5065635;28;20188;-77
2021/04/10 07:41:15;;;;;;;7.55;6.43;;;9.80;99.90;;;;;;5066211;28;20220;-77
2021/04/10 07:43:44;;;;;;;7.85;7.00;;;9.80;99.90;;;;;;5058090;28;20188;-77
2021/04/10 07:46:25;;;;;;;11.38;7.72;;;9.70;99.90;;;;;;5053720;28;20216;-76
2021/04/10 07:49:08;;;;;;;8.63;7.72;;;9.70;99.90;;;;;;5061535;28;20188;-77
2021/04/10 07:51:38;;;;;;;8.32;7.20;;;9.70;99.90;;;;;;5056309;28;20625;-77
2021/04/10 07:54:43;;;;;;;7.88;7.15;;;9.90;99.90;;;;;;5070219;28;20201;-77
2021/04/10 07:57:11;;;;;;;8.10;7.40;;;9.90;99.90;;;;;;5058930;28;20215;-77
2021/04/10 07:59:46;;;;;;;8.82;7.07;;;9.90;99.90;;;;;;5062390;28;20663;-76
2021/04/10 08:02:14;;;;;;;8.27;7.47;;;9.90;99.90;;;;;;5063463;28;20227;-76
2021/04/10 08:04:59;;;;;;;9.00;8.03;;;9.90;99.90;;;;;;5089839;28;20277;-76
2021/04/10 08:07:30;;;;;;;7.40;6.80;;;9.90;99.90;;;;;;5069830;28;20824;-76
2021/04/10 08:10:05;;;;;;;8.90;7.65;;;9.90;99.90;;;;;;5060954;28;20229;-76
2021/04/10 08:12:37;;;;;;;7.35;6.60;;;10.00;99.90;;;;;;5052593;28;20240;-76
2021/04/10 08:15:07;;;;;;;8.48;7.75;;;10.00;99.90;;;;;;5057402;28;20215;-76
2021/04/10 08:17:43;;;;;;;8.15;7.35;;;10.00;99.90;;;;;;5055877;28;20205;-76
2021/04/10 08:20:28;;;;;;;8.25;7.05;;;10.00;99.90;;;;;;5069944;28;20272;-76
2021/04/10 08:23:19;;;;;;;9.45;7.97;;;10.00;99.90;;;;;;5091799;28;20218;-76
2021/04/10 08:25:45;;;;;;;8.82;7.90;;;10.10;99.90;;;;;;5079862;28;20215;-77
2021/04/10 08:28:14;;;;;;;7.43;6.72;;;10.10;99.90;;;;;;5087484;28;20275;-76
2021/04/10 08:31:00;;;;;;;9.65;7.53;;;10.10;99.90;;;;;;5093835;28;20226;-76
2021/04/10 08:33:28;;;;;;;8.25;7.25;;;10.10;99.90;;;;;;5084505;28;20194;-77
2021/04/10 08:35:57;;;;;;;8.25;7.45;;;10.00;99.90;;;;;;5073686;28;20229;-77
2021/04/10 08:38:28;;;;;;;8.73;7.78;;;10.10;99.90;;;;;;5079397;28;20653;-77
2021/04/10 08:40:58;;;;;;;8.93;8.05;;;10.20;99.90;;;;;;5076304;28;20228;-77
2021/04/10 08:43:30;;;;;;;10.75;7.18;;;10.20;99.90;;;;;;5083714;28;20194;-77
2021/04/10 08:45:59;;;;;;;9.80;8.70;;;10.20;99.90;;;;;;5083610;28;20215;-77
2021/04/10 08:48:30;;;;;;;9.88;8.65;;;10.30;99.90;;;;;;5079594;28;20203;-77
2021/04/10 08:50:59;;;;;;;11.82;7.68;;;10.30;99.90;;;;;;5090882;28;20302;-77
2021/04/10 08:53:33;;;;;;;9.15;7.95;;;10.30;99.90;;;;;;5082628;28;20274;-77
2021/04/10 08:56:07;;;;;;;8.27;7.40;;;10.40;99.90;;;;;;5083137;28;20242;-77
2021/04/10 08:58:35;;;;;;;10.45;8.25;;;10.40;99.90;;;;;;5085289;28;20430;-77
2021/04/10 09:01:20;;;;;;;9.03;8.23;;;10.50;99.90;;;;;;5083549;28;20623;-77
2021/04/10 09:03:47;;;;;;;9.10;8.20;;;10.50;99.90;;;;;;5080010;28;20999;-76
2021/04/10 09:06:29;;;;;;;9.48;8.48;;;10.60;99.90;;;;;;5074642;28;20219;-77
2021/04/10 09:09:19;;;;;;;9.20;8.30;;;10.60;99.90;;;;;;5083789;28;20188;-77
2021/04/10 09:11:46;;;;;;;8.93;7.72;;;10.60;99.90;;;;;;5091299;28;20866;-77
2021/04/10 09:14:13;;;;;;;9.10;8.20;;;10.50;99.90;;;;;;5086864;28;20595;-76
2021/04/10 09:16:44;;;;;;;8.60;7.73;;;10.60;99.90;;;;;;5105016;27;20213;-77
2021/04/10 09:19:10;;;;;;;8.20;7.40;;;10.60;99.90;;;;;;5085572;28;20437;-77
2021/04/10 09:21:47;;;;;;;9.67;7.30;;;10.60;99.90;;;;;;5091102;27;20483;-77
2021/04/10 09:24:27;;;;;;;12.75;9.18;;;10.60;99.90;;;;;;5074970;28;20432;-77
2021/04/10 09:27:02;;;;;;;9.70;7.50;;;10.50;99.90;;;;;;5080387;28;20224;-78
2021/04/10 09:29:42;;;;;;;9.77;8.48;;;10.60;99.90;;;;;;5087546;28;20198;-77
2021/04/10 09:32:10;;;;;;;8.48;7.75;;;10.50;99.90;;;;;;5102452;28;20707;-78
2021/04/10 09:34:46;;;;;;;9.40;8.50;;;10.40;99.90;;;;;;5090246;27;20203;-78
2021/04/10 09:37:33;;;;;;;9.95;7.80;;;10.50;99.90;;;;;;5082541;28;20210;-77
2021/04/10 09:40:06;;;;;;;8.77;7.97;;;10.40;99.90;;;;;;5074104;28;20252;-77
2021/04/10 09:42:34;;;;;;;8.52;7.72;;;10.50;99.90;;;;;;5083373;28;20640;-77
2021/04/10 09:45:07;;;;;;;9.70;8.82;;;10.50;99.90;;;;;;5081771;28;20703;-77
2021/04/10 09:47:55;;;;;;;11.85;8.68;;;10.50;99.90;;;;;;5077369;28;20212;-77
2021/04/10 09:50:24;;;;;;;9.57;8.68;;;10.50;99.90;;;;;;5071156;28;20227;-78
2021/04/10 09:53:05;;;;;;;8.98;8.07;;;10.40;99.90;;;;;;5083084;28;20236;-78
2021/04/10 09:55:36;;;;;;;12.30;9.67;;;10.40;99.90;;;;;;5085123;27;20234;-77
2021/04/10 09:58:09;;;;;;;10.27;9.25;;;10.30;99.90;;;;;;5079287;28;20459;-78
2021/04/10 10:00:52;;;;;;;10.52;9.52;;;10.30;99.90;;;;;;5080491;28;20221;-78
2021/04/10 10:03:20;;;;;;;11.45;10.10;;;10.30;99.90;;;;;;5077006;28;20224;-78
2021/04/10 10:06:46;;;;;;;11.43;10.32;;;10.30;99.90;;;;;;5074172;28;20248;-78
2021/04/10 10:09:27;;;;;;;13.38;10.55;;;10.30;99.90;;;;;;5070604;28;20212;-78
2021/04/10 10:11:57;;;;;;;13.13;11.80;;;10.30;99.90;;;;;;5078160;28;20579;-78
2021/04/10 10:14:24;;;;;;;11.25;10.13;;;10.30;99.90;;;;;;5085925;28;20478;-78
2021/04/10 10:16:51;;;;;;;12.07;10.75;;;10.20;99.90;;;;;;5095737;27;20582;-78
2021/04/10 10:19:19;;;;;;;13.07;11.85;;;10.20;99.90;;;;;;5087179;28;20217;-79
2021/04/10 10:21:47;;;;;;;14.20;11.95;;;10.10;99.90;;;;;;5081053;28;20229;-78
2021/04/10 10:24:20;;;;;;;13.60;12.18;;;10.10;99.90;;;;;;5078343;28;20536;-78
2021/04/10 10:26:49;;;;;;;12.63;11.30;;;10.10;99.90;;;;;;5079479;28;20219;-78
2021/04/10 10:29:17;;;;;;;11.85;10.52;;;10.00;99.90;;;;;;5089579;28;20200;-78
2021/04/10 10:31:49;;;;;;;11.68;10.52;;;10.10;99.90;;;;;;5089027;28;20215;-78
2021/04/10 10:34:21;;;;;;;12.40;11.20;;;10.10;99.90;;;;;;5084133;28;20221;-78
2021/04/10 10:36:50;;;;;;;12.40;11.20;;;10.10;99.90;;;;;;5088521;28;20719;-78
2021/04/10 10:39:28;;;;;;;13.07;11.88;;;10.00;99.90;;;;;;5083303;28;20183;-78
2021/04/10 10:41:58;;;;;;;12.75;11.32;;;10.10;99.90;;;;;;5093222;28;20219;-78
2021/04/10 10:44:26;;;;;;;13.15;10.10;;;10.00;99.90;;;;;;5077922;28;20268;-79
2021/04/10 10:47:02;;;;;;;10.27;9.38;;;10.10;99.90;;;;;;5087475;28;20218;-78
2021/04/10 10:49:29;;;;;;;10.35;9.35;;;10.10;99.90;;;;;;5090361;28;20322;-78
2021/04/10 10:51:58;;;;;;;11.20;10.00;;;10.10;99.90;;;;;;5084847;28;20666;-78
2021/04/10 10:54:38;;;;;;;12.80;10.13;;;10.10;99.90;;;;;;5092509;28;20190;-78
2021/04/10 10:57:13;;;;;;;11.90;10.70;;;10.00;99.90;;;;;;5087543;28;20208;-78
2021/04/10 10:59:56;;;;;;;10.73;9.73;;;9.90;99.90;;;;;;5085614;27;20573;-78
2021/04/10 11:02:23;;;;;;;13.15;10.55;;;9.90;99.90;;;;;;5089655;28;20212;-78
2021/04/10 11:04:53;;;;;;;13.88;10.68;;;9.90;99.90;;;;;;5074888;28;20198;-78
2021/04/10 11:07:25;;;;;;;13.13;9.90;;;9.90;99.90;;;;;;5082483;28;20203;-79
2021/04/10 11:09:52;;;;;;;11.13;9.95;;;9.90;99.90;;;;;;5087329;27;20719;-79
2021/04/10 11:12:22;;;;;;;11.15;9.77;;;9.80;99.90;;;;;;5083384;28;20211;-79
2021/04/10 11:14:57;;;;;;;11.80;10.70;;;9.80;99.90;;;;;;5084053;27;20744;-79
2021/04/10 11:17:31;;;;;;;13.13;10.80;;;9.80;99.90;;;;;;5091576;28;20207;-78
2021/04/10 11:19:59;;;;;;;15.18;11.48;;;9.80;99.90;;;;;;5082430;28;20246;-79
2021/04/10 11:22:27;;;;;;;12.55;10.45;;;9.90;99.90;;;;;;5086713;28;20724;-79
2021/04/10 11:24:59;;;;;;;13.70;12.25;;;9.90;99.90;;;;;;5086109;28;20268;-78
2021/04/10 11:27:32;;;;;;;13.85;11.18;;;9.90;99.90;;;;;;5076107;28;20262;-78
2021/04/10 11:30:03;;;;;;;13.70;12.15;;;10.00;99.90;;;;;;5075916;28;20231;-78
2021/04/10 11:32:32;;;;;;;12.15;10.95;;;10.00;99.90;;;;;;5079145;28;20673;-78
2021/04/10 11:35:05;;;;;;;14.60;11.50;;;10.00;99.90;;;;;;5085573;28;20281;-78
2021/04/10 11:37:35;;;;;;;12.18;9.88;;;10.00;99.90;;;;;;5075536;28;20242;-79
2021/04/10 11:40:08;;;;;;;13.23;10.13;;;10.00;99.90;;;;;;5082417;28;20225;-79
2021/04/10 11:42:37;;;;;;;12.05;10.85;;;10.00;99.90;;;;;;5087395;28;20627;-79
2021/04/10 11:45:07;;;;;;;13.35;10.95;;;9.90;99.90;;;;;;5088551;28;20251;-78
2021/04/10 11:47:40;;;;;;;12.88;11.57;;;9.90;99.90;;;;;;5081514;28;20257;-78
2021/04/10 11:50:13;;;;;;;11.85;10.60;;;9.90;99.90;;;;;;5081331;28;20215;-78
2021/04/10 11:52:43;;;;;;;11.45;10.35;;;9.90;99.90;;;;;;5086069;28;20231;-78
2021/04/10 11:55:17;;;;;;;13.63;12.23;;;9.90;99.90;;;;;;5080032;28;20219;-78
2021/04/10 11:57:57;;;;;;;13.80;10.55;;;10.00;99.90;;;;;;5079778;28;20207;-79
2021/04/10 12:00:27;;;;;;;14.30;12.85;;;10.00;99.90;;;;;;5078738;28;20631;-78
2021/04/10 12:03:15;;;;;;;13.32;12.13;;;10.00;99.90;;;;;;5095594;28;20713;-78
2021/04/10 12:05:43;;;;;;;12.57;11.32;;;9.90;99.90;;;;;;5083177;28;20622;-79
2021/04/10 12:08:26;;;;;;;15.07;11.05;;;9.90;99.90;;;;;;5086961;28;20212;-79
2021/04/10 12:10:54;;;;;;;13.32;12.02;;;9.90;99.90;;;;;;5084778;28;20218;-78
2021/04/10 12:13:22;;;;;;;15.25;13.65;;;9.80;99.90;;;;;;5075745;28;20231;-78
2021/04/10 12:15:51;;;;;;;15.63;13.38;;;9.80;99.90;;;;;;5082861;27;20223;-78
2021/04/10 12:18:18;;;;;;;14.95;13.40;;;9.80;99.90;;;;;;5081260;28;20218;-78
2021/04/10 12:20:46;;;;;;;15.80;14.20;;;9.80;99.90;;;;;;5084421;27;20214;-78
2021/04/10 12:23:13;;;;;;;16.55;14.70;;;9.80;99.90;;;;;;5081288;28;20261;-78
2021/04/10 12:25:40;;;;;;;16.38;14.65;;;9.70;99.90;;;;;;5088072;28;20274;-78
2021/04/10 12:28:11;;;;;;;24.55;16.75;;;9.70;99.90;;;;;;5084019;28;20205;-78
2021/04/10 12:30:38;;;;;;;20.45;16.65;;;9.70;99.90;;;;;;5084248;28;20348;-78
2021/04/10 12:33:05;;;;;;;18.98;16.98;;;9.70;99.90;;;;;;5077556;28;20265;-78
2021/04/10 12:35:31;;;;;;;18.33;16.35;;;9.70;99.90;;;;;;5086505;27;20234;-78
2021/04/10 12:37:58;;;;;;;17.92;14.80;;;9.60;99.90;;;;;;5072931;28;20210;-78
2021/04/10 12:40:25;;;;;;;20.13;17.10;;;9.60;99.90;;;;;;5079914;27;20715;-78
2021/04/10 12:42:52;;;;;;;19.08;16.60;;;9.60;99.90;;;;;;5073476;28;20212;-78
2021/04/10 12:45:19;;;;;;;18.27;16.27;;;9.70;99.90;;;;;;5082635;28;20747;-78
2021/04/10 12:47:48;;;;;;;20.83;17.02;;;9.70;99.90;;;;;;5088669;28;20289;-78
2021/04/10 12:50:18;;;;;;;21.92;18.77;;;9.70;99.90;;;;;;5085776;27;20226;-79
2021/04/10 12:52:45;;;;;;;22.63;17.67;;;9.70;99.90;;;;;;5078040;28;20298;-78
2021/04/10 12:55:13;;;;;;;18.75;16.75;;;9.70;99.90;;;;;;5087154;28;20588;-78
2021/04/10 12:57:41;;;;;;;22.58;17.23;;;9.80;99.90;;;;;;5087420;28;20215;-78